Cebolla, New Mexico
Current Conditions -  °F | °C
As of 7:15 AM on Thursday 18 Dec 2014 (Local Time) from KSKX Reporting Station
Overcast Overcast  
Wind Chill: 21°   Ceiling: 700
Heat Index: 27°   Visibility: 10mi
Dew Point: 25°   Wind: 5mph
Humidity: 93%   Direction: 350°N
Pressure: 30.11"   Gusts: NA
Location:  36.54°N, 106.49°W
Report Text: KSKX 181415Z AUTO 35004KT 10SM OVC007 M03/M04 A3011 RMK AO1
Loading
Personal Weather Stations






























Interactive Weather Map New forecast layout! Learn more

10-Day Weather Forecast

Advertisements
Track Severe Weather on mobile